sensor_id;sensor_type;location;lat;lon;timestamp;P1;durP1;ratioP1;P2;durP2;ratioP2
54005;SDS011;39919;38.160;-122.260;2023-06-04T00:00:55;16.63;;;2.83;;
54005;SDS011;39919;38.160;-122.260;2023-06-04T00:03:30;11.63;;;2.58;;
54005;SDS011;39919;38.160;-122.260;2023-06-04T00:06:01;9.25;;;2.53;;
54005;SDS011;39919;38.160;-122.260;2023-06-04T00:08:40;18.73;;;5.82;;
54005;SDS011;39919;38.160;-122.260;2023-06-04T00:11:19;22.88;;;11.23;;
54005;SDS011;39919;38.160;-122.260;2023-06-04T00:13:48;14.32;;;5.00;;
54005;SDS011;39919;38.160;-122.260;2023-06-04T00:16:22;12.27;;;4.45;;
54005;SDS011;39919;38.160;-122.260;2023-06-04T00:18:52;15.15;;;2.50;;
54005;SDS011;39919;38.160;-122.260;2023-06-04T00:21:26;12.63;;;2.63;;
54005;SDS011;39919;38.160;-122.260;2023-06-04T00:23:55;11.68;;;2.28;;
54005;SDS011;39919;38.160;-122.260;2023-06-04T00:26:30;10.55;;;1.90;;
54005;SDS011;39919;38.160;-122.260;2023-06-04T00:29:00;7.72;;;1.63;;
54005;SDS011;39919;38.160;-122.260;2023-06-04T00:31:31;14.15;;;2.47;;
54005;SDS011;39919;38.160;-122.260;2023-06-04T00:34:02;14.07;;;2.28;;
54005;SDS011;39919;38.160;-122.260;2023-06-04T00:36:33;7.70;;;2.50;;
54005;SDS011;39919;38.160;-122.260;2023-06-04T00:39:05;16.73;;;5.50;;
54005;SDS011;39919;38.160;-122.260;2023-06-04T00:41:37;39.70;;;16.27;;
54005;SDS011;39919;38.160;-122.260;2023-06-04T00:44:06;17.88;;;5.65;;
54005;SDS011;39919;38.160;-122.260;2023-06-04T00:46:39;25.52;;;11.05;;
54005;SDS011;39919;38.160;-122.260;2023-06-04T00:49:12;19.95;;;4.93;;
54005;SDS011;39919;38.160;-122.260;2023-06-04T00:51:43;14.20;;;4.78;;
54005;SDS011;39919;38.160;-122.260;2023-06-04T00:54:12;12.40;;;2.28;;
54005;SDS011;39919;38.160;-122.260;2023-06-04T00:56:44;12.85;;;1.90;;
54005;SDS011;39919;38.160;-122.260;2023-06-04T00:59:19;11.40;;;2.55;;
54005;SDS011;39919;38.160;-122.260;2023-06-04T01:01:51;11.13;;;2.13;;
54005;SDS011;39919;38.160;-122.260;2023-06-04T01:04:30;12.15;;;2.28;;
54005;SDS011;39919;38.160;-122.260;2023-06-04T01:07:05;10.93;;;2.65;;
54005;SDS011;39919;38.160;-122.260;2023-06-04T01:09:40;15.57;;;2.40;;
54005;SDS011;39919;38.160;-122.260;2023-06-04T01:12:12;10.88;;;1.58;;
54005;SDS011;39919;38.160;-122.260;2023-06-04T01:14:42;12.25;;;2.50;;
54005;SDS011;39919;38.160;-122.260;2023-06-04T01:17:15;11.93;;;3.08;;
54005;SDS011;39919;38.160;-122.260;2023-06-04T01:25:59;17.60;;;2.80;;
54005;SDS011;39919;38.160;-122.260;2023-06-04T01:28:30;10.10;;;1.98;;
54005;SDS011;39919;38.160;-122.260;2023-06-04T01:31:06;11.45;;;2.35;;
54005;SDS011;39919;38.160;-122.260;2023-06-04T01:33:36;8.63;;;2.28;;
54005;SDS011;39919;38.160;-122.260;2023-06-04T01:36:07;13.40;;;2.97;;
54005;SDS011;39919;38.160;-122.260;2023-06-04T01:38:43;11.65;;;2.78;;
54005;SDS011;39919;38.160;-122.260;2023-06-04T01:41:17;14.50;;;2.70;;
54005;SDS011;39919;38.160;-122.260;2023-06-04T01:43:50;14.95;;;3.10;;
54005;SDS011;39919;38.160;-122.260;2023-06-04T01:46:26;18.42;;;3.67;;
54005;SDS011;39919;38.160;-122.260;2023-06-04T01:48:55;11.05;;;2.65;;
54005;SDS011;39919;38.160;-122.260;2023-06-04T01:51:29;10.75;;;3.00;;
54005;SDS011;39919;38.160;-122.260;2023-06-04T01:54:01;11.52;;;2.80;;
54005;SDS011;39919;38.160;-122.260;2023-06-04T01:56:42;11.32;;;3.08;;
54005;SDS011;39919;38.160;-122.260;2023-06-04T01:59:12;17.73;;;3.97;;
54005;SDS011;39919;38.160;-122.260;2023-06-04T02:01:41;18.17;;;3.08;;
54005;SDS011;39919;38.160;-122.260;2023-06-04T02:04:16;13.20;;;3.03;;
54005;SDS011;39919;38.160;-122.260;2023-06-04T02:06:48;16.05;;;2.53;;
54005;SDS011;39919;38.160;-122.260;2023-06-04T02:09:23;18.08;;;3.10;;
54005;SDS011;39919;38.160;-122.260;2023-06-04T02:11:58;15.18;;;2.38;;
54005;SDS011;39919;38.160;-122.260;2023-06-04T02:14:28;20.20;;;3.15;;
54005;SDS011;39919;38.160;-122.260;2023-06-04T02:16:58;14.32;;;2.85;;
54005;SDS011;39919;38.160;-122.260;2023-06-04T02:19:38;18.20;;;3.38;;
54005;SDS011;39919;38.160;-122.260;2023-06-04T02:22:10;12.25;;;2.53;;
54005;SDS011;39919;38.160;-122.260;2023-06-04T02:24:43;15.15;;;3.38;;
54005;SDS011;39919;38.160;-122.260;2023-06-04T02:27:15;14.57;;;2.85;;
54005;SDS011;39919;38.160;-122.260;2023-06-04T02:29:57;15.32;;;3.25;;
54005;SDS011;39919;38.160;-122.260;2023-06-04T02:32:30;11.63;;;2.40;;
54005;SDS011;39919;38.160;-122.260;2023-06-04T02:35:02;16.13;;;3.35;;
54005;SDS011;39919;38.160;-122.260;2023-06-04T02:37:47;12.38;;;2.78;;
54005;SDS011;39919;38.160;-122.260;2023-06-04T02:40:18;17.45;;;3.58;;
54005;SDS011;39919;38.160;-122.260;2023-06-04T02:42:47;12.93;;;2.90;;
54005;SDS011;39919;38.160;-122.260;2023-06-04T02:45:16;25.00;;;3.67;;
54005;SDS011;39919;38.160;-122.260;2023-06-04T02:47:51;10.73;;;2.40;;
54005;SDS011;39919;38.160;-122.260;2023-06-04T02:50:23;12.57;;;2.25;;
54005;SDS011;39919;38.160;-122.260;2023-06-04T02:52:56;12.45;;;2.85;;
54005;SDS011;39919;38.160;-122.260;2023-06-04T02:55:27;16.42;;;2.92;;
54005;SDS011;39919;38.160;-122.260;2023-06-04T02:57:58;17.45;;;2.75;;
54005;SDS011;39919;38.160;-122.260;2023-06-04T03:00:28;17.33;;;2.53;;
54005;SDS011;39919;38.160;-122.260;2023-06-04T03:03:03;16.50;;;3.08;;
54005;SDS011;39919;38.160;-122.260;2023-06-04T03:05:32;11.20;;;2.38;;
54005;SDS011;39919;38.160;-122.260;2023-06-04T03:08:05;13.18;;;2.65;;
54005;SDS011;39919;38.160;-122.260;2023-06-04T03:10:40;13.00;;;2.70;;
54005;SDS011;39919;38.160;-122.260;2023-06-04T03:13:10;21.15;;;3.65;;
54005;SDS011;39919;38.160;-122.260;2023-06-04T03:15:41;20.13;;;3.63;;
54005;SDS011;39919;38.160;-122.260;2023-06-04T03:18:12;16.05;;;3.55;;
54005;SDS011;39919;38.160;-122.260;2023-06-04T03:20:41;26.95;;;4.30;;
54005;SDS011;39919;38.160;-122.260;2023-06-04T03:23:11;15.55;;;2.97;;
54005;SDS011;39919;38.160;-122.260;2023-06-04T03:25:42;18.88;;;3.20;;
54005;SDS011;39919;38.160;-122.260;2023-06-04T03:28:11;20.85;;;3.15;;
54005;SDS011;39919;38.160;-122.260;2023-06-04T03:30:43;13.85;;;2.35;;
54005;SDS011;39919;38.160;-122.260;2023-06-04T03:33:17;21.42;;;3.30;;
54005;SDS011;39919;38.160;-122.260;2023-06-04T03:35:51;25.17;;;4.18;;
54005;SDS011;39919;38.160;-122.260;2023-06-04T03:38:26;22.05;;;4.03;;
54005;SDS011;39919;38.160;-122.260;2023-06-04T03:40:57;30.40;;;5.07;;
54005;SDS011;39919;38.160;-122.260;2023-06-04T03:43:28;28.27;;;4.65;;
54005;SDS011;39919;38.160;-122.260;2023-06-04T03:45:57;16.50;;;3.13;;
54005;SDS011;39919;38.160;-122.260;2023-06-04T03:48:26;18.95;;;4.00;;
54005;SDS011;39919;38.160;-122.260;2023-06-04T03:50:55;21.63;;;3.28;;
54005;SDS011;39919;38.160;-122.260;2023-06-04T03:53:25;17.80;;;3.25;;
54005;SDS011;39919;38.160;-122.260;2023-06-04T03:55:58;19.58;;;3.13;;
54005;SDS011;39919;38.160;-122.260;2023-06-04T03:58:28;19.45;;;3.53;;
54005;SDS011;39919;38.160;-122.260;2023-06-04T04:00:59;24.90;;;4.40;;
54005;SDS011;39919;38.160;-122.260;2023-06-04T04:03:33;24.92;;;3.72;;
54005;SDS011;39919;38.160;-122.260;2023-06-04T04:06:13;18.85;;;3.85;;
54005;SDS011;39919;38.160;-122.260;2023-06-04T04:08:44;21.98;;;3.50;;
54005;SDS011;39919;38.160;-122.260;2023-06-04T04:14:15;17.75;;;2.97;;
54005;SDS011;39919;38.160;-122.260;2023-06-04T04:16:44;27.83;;;4.25;;
54005;SDS011;39919;38.160;-122.260;2023-06-04T04:19:33;26.33;;;4.93;;
54005;SDS011;39919;38.160;-122.260;2023-06-04T04:22:03;14.07;;;2.95;;
54005;SDS011;39919;38.160;-122.260;2023-06-04T04:24:34;18.73;;;3.40;;
54005;SDS011;39919;38.160;-122.260;2023-06-04T04:27:13;25.45;;;4.95;;
54005;SDS011;39919;38.160;-122.260;2023-06-04T04:29:45;28.70;;;5.18;;
54005;SDS011;39919;38.160;-122.260;2023-06-04T04:32:18;22.65;;;4.03;;
54005;SDS011;39919;38.160;-122.260;2023-06-04T04:34:51;25.48;;;4.05;;
54005;SDS011;39919;38.160;-122.260;2023-06-04T04:37:24;19.15;;;3.15;;
54005;SDS011;39919;38.160;-122.260;2023-06-04T04:39:58;26.30;;;5.03;;
54005;SDS011;39919;38.160;-122.260;2023-06-04T04:42:31;16.38;;;2.45;;
54005;SDS011;39919;38.160;-122.260;2023-06-04T04:45:02;23.65;;;4.13;;
54005;SDS011;39919;38.160;-122.260;2023-06-04T04:47:40;33.53;;;5.35;;
54005;SDS011;39919;38.160;-122.260;2023-06-04T04:50:22;24.90;;;4.82;;
54005;SDS011;39919;38.160;-122.260;2023-06-04T04:53:01;27.98;;;4.72;;
54005;SDS011;39919;38.160;-122.260;2023-06-04T04:55:44;24.70;;;4.25;;
54005;SDS011;39919;38.160;-122.260;2023-06-04T04:58:19;22.73;;;4.13;;
54005;SDS011;39919;38.160;-122.260;2023-06-04T05:00:49;23.30;;;4.32;;
54005;SDS011;39919;38.160;-122.260;2023-06-04T05:03:18;25.67;;;4.10;;
54005;SDS011;39919;38.160;-122.260;2023-06-04T05:05:50;14.50;;;2.80;;
54005;SDS011;39919;38.160;-122.260;2023-06-04T05:08:23;25.73;;;5.05;;
54005;SDS011;39919;38.160;-122.260;2023-06-04T05:10:57;28.90;;;4.50;;
54005;SDS011;39919;38.160;-122.260;2023-06-04T05:13:44;28.58;;;5.72;;
54005;SDS011;39919;38.160;-122.260;2023-06-04T05:16:15;21.73;;;5.18;;
54005;SDS011;39919;38.160;-122.260;2023-06-04T05:18:46;25.65;;;4.38;;
54005;SDS011;39919;38.160;-122.260;2023-06-04T05:21:17;24.13;;;4.85;;
54005;SDS011;39919;38.160;-122.260;2023-06-04T05:23:46;25.63;;;3.75;;
54005;SDS011;39919;38.160;-122.260;2023-06-04T05:26:18;23.92;;;4.22;;
54005;SDS011;39919;38.160;-122.260;2023-06-04T05:28:50;26.17;;;4.28;;
54005;SDS011;39919;38.160;-122.260;2023-06-04T05:31:20;21.90;;;3.55;;
54005;SDS011;39919;38.160;-122.260;2023-06-04T05:33:52;23.00;;;3.22;;
54005;SDS011;39919;38.160;-122.260;2023-06-04T05:36:21;28.60;;;5.60;;
54005;SDS011;39919;38.160;-122.260;2023-06-04T05:38:50;28.73;;;4.22;;
54005;SDS011;39919;38.160;-122.260;2023-06-04T05:41:22;26.73;;;3.78;;
54005;SDS011;39919;38.160;-122.260;2023-06-04T05:43:54;25.58;;;4.20;;
54005;SDS011;39919;38.160;-122.260;2023-06-04T05:46:37;30.50;;;4.15;;
54005;SDS011;39919;38.160;-122.260;2023-06-04T05:49:09;26.42;;;4.47;;
54005;SDS011;39919;38.160;-122.260;2023-06-04T05:51:47;29.88;;;4.80;;
54005;SDS011;39919;38.160;-122.260;2023-06-04T05:54:26;28.52;;;5.03;;
54005;SDS011;39919;38.160;-122.260;2023-06-04T05:56:57;28.98;;;5.60;;
54005;SDS011;39919;38.160;-122.260;2023-06-04T05:59:33;29.35;;;6.60;;
54005;SDS011;39919;38.160;-122.260;2023-06-04T06:02:02;33.17;;;4.57;;
54005;SDS011;39919;38.160;-122.260;2023-06-04T06:04:32;27.65;;;4.65;;
54005;SDS011;39919;38.160;-122.260;2023-06-04T06:07:01;27.63;;;4.75;;
54005;SDS011;39919;38.160;-122.260;2023-06-04T06:09:30;25.25;;;4.70;;
54005;SDS011;39919;38.160;-122.260;2023-06-04T06:12:00;34.22;;;5.47;;
54005;SDS011;39919;38.160;-122.260;2023-06-04T06:14:35;36.75;;;5.28;;
54005;SDS011;39919;38.160;-122.260;2023-06-04T06:17:04;20.38;;;3.92;;
54005;SDS011;39919;38.160;-122.260;2023-06-04T06:19:34;27.70;;;4.88;;
54005;SDS011;39919;38.160;-122.260;2023-06-04T06:22:03;33.25;;;5.00;;
54005;SDS011;39919;38.160;-122.260;2023-06-04T06:24:33;27.25;;;4.55;;
54005;SDS011;39919;38.160;-122.260;2023-06-04T06:27:06;37.97;;;6.15;;
54005;SDS011;39919;38.160;-122.260;2023-06-04T06:29:39;32.60;;;5.32;;
54005;SDS011;39919;38.160;-122.260;2023-06-04T06:32:08;23.67;;;4.22;;
54005;SDS011;39919;38.160;-122.260;2023-06-04T06:34:38;37.00;;;5.43;;
54005;SDS011;39919;38.160;-122.260;2023-06-04T06:37:07;32.15;;;4.80;;
54005;SDS011;39919;38.160;-122.260;2023-06-04T06:39:36;42.92;;;5.65;;
54005;SDS011;39919;38.160;-122.260;2023-06-04T06:42:05;34.58;;;5.68;;
54005;SDS011;39919;38.160;-122.260;2023-06-04T06:44:40;26.25;;;4.95;;
54005;SDS011;39919;38.160;-122.260;2023-06-04T06:47:11;36.80;;;5.28;;
54005;SDS011;39919;38.160;-122.260;2023-06-04T06:49:43;37.58;;;5.80;;
54005;SDS011;39919;38.160;-122.260;2023-06-04T06:52:12;31.70;;;4.82;;
54005;SDS011;39919;38.160;-122.260;2023-06-04T06:54:47;31.35;;;5.32;;
54005;SDS011;39919;38.160;-122.260;2023-06-04T06:57:18;25.25;;;3.97;;
54005;SDS011;39919;38.160;-122.260;2023-06-04T06:59:51;36.72;;;6.35;;
54005;SDS011;39919;38.160;-122.260;2023-06-04T07:02:27;38.85;;;5.28;;
54005;SDS011;39919;38.160;-122.260;2023-06-04T07:04:59;24.30;;;4.15;;
54005;SDS011;39919;38.160;-122.260;2023-06-04T07:07:28;33.88;;;5.63;;
54005;SDS011;39919;38.160;-122.260;2023-06-04T07:09:57;23.55;;;5.22;;
54005;SDS011;39919;38.160;-122.260;2023-06-04T07:12:26;35.40;;;5.50;;
54005;SDS011;39919;38.160;-122.260;2023-06-04T07:15:02;37.47;;;5.68;;
54005;SDS011;39919;38.160;-122.260;2023-06-04T07:17:32;29.65;;;5.35;;
54005;SDS011;39919;38.160;-122.260;2023-06-04T07:20:01;46.53;;;6.18;;
54005;SDS011;39919;38.160;-122.260;2023-06-04T07:22:33;36.53;;;6.32;;
54005;SDS011;39919;38.160;-122.260;2023-06-04T07:25:05;28.83;;;5.72;;
54005;SDS011;39919;38.160;-122.260;2023-06-04T07:27:35;30.65;;;4.43;;
54005;SDS011;39919;38.160;-122.260;2023-06-04T07:30:06;32.03;;;4.72;;
54005;SDS011;39919;38.160;-122.260;2023-06-04T07:32:37;32.30;;;5.50;;
54005;SDS011;39919;38.160;-122.260;2023-06-04T07:35:09;26.60;;;4.22;;
54005;SDS011;39919;38.160;-122.260;2023-06-04T07:37:38;41.45;;;8.07;;
54005;SDS011;39919;38.160;-122.260;2023-06-04T07:40:10;36.58;;;6.03;;
54005;SDS011;39919;38.160;-122.260;2023-06-04T07:42:42;36.80;;;6.85;;
54005;SDS011;39919;38.160;-122.260;2023-06-04T07:45:14;45.65;;;7.38;;
54005;SDS011;39919;38.160;-122.260;2023-06-04T07:47:46;43.85;;;6.45;;
54005;SDS011;39919;38.160;-122.260;2023-06-04T07:50:15;34.42;;;5.32;;
54005;SDS011;39919;38.160;-122.260;2023-06-04T07:52:44;27.27;;;4.65;;
54005;SDS011;39919;38.160;-122.260;2023-06-04T07:55:13;43.83;;;6.68;;
54005;SDS011;39919;38.160;-122.260;2023-06-04T07:57:43;40.45;;;7.70;;
54005;SDS011;39919;38.160;-122.260;2023-06-04T08:00:20;35.35;;;5.75;;
54005;SDS011;39919;38.160;-122.260;2023-06-04T08:02:49;42.63;;;6.35;;
54005;SDS011;39919;38.160;-122.260;2023-06-04T08:05:22;34.38;;;6.35;;
54005;SDS011;39919;38.160;-122.260;2023-06-04T08:07:51;28.08;;;5.10;;
54005;SDS011;39919;38.160;-122.260;2023-06-04T08:10:28;45.85;;;5.82;;
54005;SDS011;39919;38.160;-122.260;2023-06-04T08:13:05;35.95;;;5.38;;
54005;SDS011;39919;38.160;-122.260;2023-06-04T08:15:37;42.20;;;6.13;;
54005;SDS011;39919;38.160;-122.260;2023-06-04T08:21:25;30.15;;;5.30;;
54005;SDS011;39919;38.160;-122.260;2023-06-04T08:23:54;30.67;;;5.63;;
54005;SDS011;39919;38.160;-122.260;2023-06-04T08:26:25;39.50;;;6.28;;
54005;SDS011;39919;38.160;-122.260;2023-06-04T08:28:54;46.33;;;7.05;;
54005;SDS011;39919;38.160;-122.260;2023-06-04T08:31:28;35.08;;;5.35;;
54005;SDS011;39919;38.160;-122.260;2023-06-04T08:34:20;37.95;;;6.30;;
54005;SDS011;39919;38.160;-122.260;2023-06-04T08:36:59;43.78;;;7.53;;
54005;SDS011;39919;38.160;-122.260;2023-06-04T08:39:34;37.08;;;6.05;;
54005;SDS011;39919;38.160;-122.260;2023-06-04T08:42:06;43.00;;;6.80;;
54005;SDS011;39919;38.160;-122.260;2023-06-04T08:44:37;54.97;;;7.82;;
54005;SDS011;39919;38.160;-122.260;2023-06-04T08:47:08;42.63;;;6.40;;
54005;SDS011;39919;38.160;-122.260;2023-06-04T08:49:46;34.42;;;6.57;;
54005;SDS011;39919;38.160;-122.260;2023-06-04T08:52:20;38.85;;;6.32;;
54005;SDS011;39919;38.160;-122.260;2023-06-04T08:54:51;35.85;;;6.35;;
54005;SDS011;39919;38.160;-122.260;2023-06-04T08:57:20;45.95;;;6.65;;
54005;SDS011;39919;38.160;-122.260;2023-06-04T08:59:55;41.78;;;7.20;;
54005;SDS011;39919;38.160;-122.260;2023-06-04T09:02:25;42.15;;;8.10;;
54005;SDS011;39919;38.160;-122.260;2023-06-04T09:04:56;42.30;;;7.85;;
54005;SDS011;39919;38.160;-122.260;2023-06-04T09:07:27;37.20;;;5.60;;
54005;SDS011;39919;38.160;-122.260;2023-06-04T09:09:57;41.22;;;6.82;;
54005;SDS011;39919;38.160;-122.260;2023-06-04T09:12:27;47.78;;;8.18;;
54005;SDS011;39919;38.160;-122.260;2023-06-04T09:14:58;41.40;;;6.93;;
54005;SDS011;39919;38.160;-122.260;2023-06-04T09:17:29;34.67;;;5.07;;
54005;SDS011;39919;38.160;-122.260;2023-06-04T09:19:58;31.38;;;6.00;;
54005;SDS011;39919;38.160;-122.260;2023-06-04T09:22:34;33.97;;;6.65;;
54005;SDS011;39919;38.160;-122.260;2023-06-04T09:25:05;45.67;;;8.88;;
54005;SDS011;39919;38.160;-122.260;2023-06-04T09:27:46;55.08;;;7.68;;
54005;SDS011;39919;38.160;-122.260;2023-06-04T09:30:18;53.30;;;6.75;;
54005;SDS011;39919;38.160;-122.260;2023-06-04T09:32:52;38.45;;;7.63;;
54005;SDS011;39919;38.160;-122.260;2023-06-04T09:35:21;42.50;;;6.72;;
54005;SDS011;39919;38.160;-122.260;2023-06-04T09:37:53;46.13;;;7.78;;
54005;SDS011;39919;38.160;-122.260;2023-06-04T09:40:24;31.63;;;5.22;;
54005;SDS011;39919;38.160;-122.260;2023-06-04T09:43:02;35.92;;;5.63;;
54005;SDS011;39919;38.160;-122.260;2023-06-04T09:45:32;30.48;;;6.00;;
54005;SDS011;39919;38.160;-122.260;2023-06-04T09:48:05;27.88;;;4.97;;
54005;SDS011;39919;38.160;-122.260;2023-06-04T09:50:34;44.83;;;7.20;;
54005;SDS011;39919;38.160;-122.260;2023-06-04T09:53:12;48.00;;;7.40;;
54005;SDS011;39919;38.160;-122.260;2023-06-04T09:55:42;39.90;;;5.88;;
54005;SDS011;39919;38.160;-122.260;2023-06-04T09:58:12;44.72;;;7.38;;
54005;SDS011;39919;38.160;-122.260;2023-06-04T10:00:54;47.33;;;7.78;;
54005;SDS011;39919;38.160;-122.260;2023-06-04T10:03:31;36.92;;;7.57;;
54005;SDS011;39919;38.160;-122.260;2023-06-04T10:06:02;41.00;;;7.18;;
54005;SDS011;39919;38.160;-122.260;2023-06-04T10:08:32;39.20;;;5.72;;
54005;SDS011;39919;38.160;-122.260;2023-06-04T10:11:02;31.63;;;4.75;;
54005;SDS011;39919;38.160;-122.260;2023-06-04T10:13:35;23.52;;;4.25;;
54005;SDS011;39919;38.160;-122.260;2023-06-04T10:16:08;25.60;;;5.22;;
54005;SDS011;39919;38.160;-122.260;2023-06-04T10:18:42;27.83;;;4.35;;
54005;SDS011;39919;38.160;-122.260;2023-06-04T10:21:12;31.63;;;5.15;;
54005;SDS011;39919;38.160;-122.260;2023-06-04T10:23:46;30.23;;;5.45;;
54005;SDS011;39919;38.160;-122.260;2023-06-04T10:26:15;28.38;;;4.95;;
54005;SDS011;39919;38.160;-122.260;2023-06-04T10:28:44;23.05;;;3.70;;
54005;SDS011;39919;38.160;-122.260;2023-06-04T10:31:15;38.00;;;5.97;;
54005;SDS011;39919;38.160;-122.260;2023-06-04T10:33:52;16.88;;;3.50;;
54005;SDS011;39919;38.160;-122.260;2023-06-04T10:36:23;21.33;;;4.40;;
54005;SDS011;39919;38.160;-122.260;2023-06-04T10:38:55;25.88;;;4.22;;
54005;SDS011;39919;38.160;-122.260;2023-06-04T10:41:24;39.50;;;5.57;;
54005;SDS011;39919;38.160;-122.260;2023-06-04T10:44:00;32.33;;;6.00;;
54005;SDS011;39919;38.160;-122.260;2023-06-04T10:46:37;40.00;;;6.40;;
54005;SDS011;39919;38.160;-122.260;2023-06-04T10:49:11;35.50;;;5.45;;
54005;SDS011;39919;38.160;-122.260;2023-06-04T10:51:41;52.42;;;7.03;;
54005;SDS011;39919;38.160;-122.260;2023-06-04T10:54:21;45.55;;;6.30;;
54005;SDS011;39919;38.160;-122.260;2023-06-04T10:56:52;34.05;;;6.90;;
54005;SDS011;39919;38.160;-122.260;2023-06-04T10:59:24;48.17;;;7.43;;
54005;SDS011;39919;38.160;-122.260;2023-06-04T11:02:03;35.05;;;5.97;;
54005;SDS011;39919;38.160;-122.260;2023-06-04T11:04:35;37.45;;;6.53;;
54005;SDS011;39919;38.160;-122.260;2023-06-04T11:07:05;55.33;;;7.72;;
54005;SDS011;39919;38.160;-122.260;2023-06-04T11:09:35;28.00;;;4.90;;
54005;SDS011;39919;38.160;-122.260;2023-06-04T11:12:05;23.02;;;4.15;;
54005;SDS011;39919;38.160;-122.260;2023-06-04T11:14:35;29.90;;;5.45;;
54005;SDS011;39919;38.160;-122.260;2023-06-04T11:17:10;24.88;;;5.35;;
54005;SDS011;39919;38.160;-122.260;2023-06-04T11:19:42;39.40;;;7.43;;
54005;SDS011;39919;38.160;-122.260;2023-06-04T11:22:11;33.45;;;6.25;;
54005;SDS011;39919;38.160;-122.260;2023-06-04T11:24:41;50.70;;;7.68;;
54005;SDS011;39919;38.160;-122.260;2023-06-04T11:27:10;42.85;;;6.78;;
54005;SDS011;39919;38.160;-122.260;2023-06-04T11:29:42;24.38;;;4.38;;
54005;SDS011;39919;38.160;-122.260;2023-06-04T11:32:20;30.95;;;4.80;;
54005;SDS011;39919;38.160;-122.260;2023-06-04T11:35:01;39.03;;;6.32;;
54005;SDS011;39919;38.160;-122.260;2023-06-04T11:37:32;40.80;;;6.43;;
54005;SDS011;39919;38.160;-122.260;2023-06-04T11:40:01;36.80;;;4.90;;
54005;SDS011;39919;38.160;-122.260;2023-06-04T11:42:32;25.30;;;4.55;;
54005;SDS011;39919;38.160;-122.260;2023-06-04T11:45:02;26.83;;;5.40;;
54005;SDS011;39919;38.160;-122.260;2023-06-04T11:47:32;47.08;;;6.65;;
54005;SDS011;39919;38.160;-122.260;2023-06-04T11:50:03;50.28;;;7.35;;
54005;SDS011;39919;38.160;-122.260;2023-06-04T11:52:34;50.55;;;7.72;;
54005;SDS011;39919;38.160;-122.260;2023-06-04T11:55:04;32.28;;;5.88;;
54005;SDS011;39919;38.160;-122.260;2023-06-04T11:57:36;35.65;;;6.90;;
54005;SDS011;39919;38.160;-122.260;2023-06-04T12:00:09;47.67;;;8.45;;
54005;SDS011;39919;38.160;-122.260;2023-06-04T12:02:39;37.92;;;7.03;;
54005;SDS011;39919;38.160;-122.260;2023-06-04T12:05:22;38.85;;;6.25;;
54005;SDS011;39919;38.160;-122.260;2023-06-04T12:08:03;34.75;;;5.95;;
54005;SDS011;39919;38.160;-122.260;2023-06-04T12:10:38;38.40;;;7.00;;
54005;SDS011;39919;38.160;-122.260;2023-06-04T12:13:08;36.45;;;5.90;;
54005;SDS011;39919;38.160;-122.260;2023-06-04T12:15:37;42.42;;;6.28;;
54005;SDS011;39919;38.160;-122.260;2023-06-04T12:18:07;17.25;;;3.53;;
54005;SDS011;39919;38.160;-122.260;2023-06-04T12:20:38;16.35;;;3.00;;
54005;SDS011;39919;38.160;-122.260;2023-06-04T12:23:08;39.22;;;6.20;;
54005;SDS011;39919;38.160;-122.260;2023-06-04T12:25:49;30.02;;;5.22;;
54005;SDS011;39919;38.160;-122.260;2023-06-04T12:28:19;30.58;;;4.85;;
54005;SDS011;39919;38.160;-122.260;2023-06-04T12:30:48;44.92;;;6.07;;
54005;SDS011;39919;38.160;-122.260;2023-06-04T12:33:19;40.00;;;6.38;;
54005;SDS011;39919;38.160;-122.260;2023-06-04T12:35:50;40.13;;;6.38;;
54005;SDS011;39919;38.160;-122.260;2023-06-04T12:38:20;35.20;;;6.55;;
54005;SDS011;39919;38.160;-122.260;2023-06-04T12:40:49;39.40;;;6.82;;
54005;SDS011;39919;38.160;-122.260;2023-06-04T12:43:18;40.55;;;6.72;;
54005;SDS011;39919;38.160;-122.260;2023-06-04T12:45:47;53.05;;;7.50;;
54005;SDS011;39919;38.160;-122.260;2023-06-04T12:48:16;44.15;;;7.25;;
54005;SDS011;39919;38.160;-122.260;2023-06-04T12:50:52;29.92;;;5.18;;
54005;SDS011;39919;38.160;-122.260;2023-06-04T12:53:23;31.52;;;5.43;;
54005;SDS011;39919;38.160;-122.260;2023-06-04T12:55:52;43.88;;;7.25;;
54005;SDS011;39919;38.160;-122.260;2023-06-04T12:58:21;53.75;;;8.57;;
54005;SDS011;39919;38.160;-122.260;2023-06-04T13:00:51;43.47;;;6.15;;
54005;SDS011;39919;38.160;-122.260;2023-06-04T13:03:20;47.55;;;7.68;;
54005;SDS011;39919;38.160;-122.260;2023-06-04T13:05:53;30.98;;;5.45;;
54005;SDS011;39919;38.160;-122.260;2023-06-04T13:08:22;54.38;;;9.18;;
54005;SDS011;39919;38.160;-122.260;2023-06-04T13:10:52;44.20;;;7.65;;
54005;SDS011;39919;38.160;-122.260;2023-06-04T13:13:21;41.30;;;6.65;;
54005;SDS011;39919;38.160;-122.260;2023-06-04T13:15:50;39.88;;;5.90;;
54005;SDS011;39919;38.160;-122.260;2023-06-04T13:18:22;45.75;;;6.38;;
54005;SDS011;39919;38.160;-122.260;2023-06-04T13:20:56;41.88;;;5.85;;
54005;SDS011;39919;38.160;-122.260;2023-06-04T13:23:28;42.08;;;7.00;;
54005;SDS011;39919;38.160;-122.260;2023-06-04T13:25:57;46.13;;;8.52;;
54005;SDS011;39919;38.160;-122.260;2023-06-04T13:28:26;50.30;;;6.47;;
54005;SDS011;39919;38.160;-122.260;2023-06-04T13:30:56;42.10;;;7.03;;
54005;SDS011;39919;38.160;-122.260;2023-06-04T13:33:26;53.17;;;8.95;;
54005;SDS011;39919;38.160;-122.260;2023-06-04T13:35:57;43.85;;;7.93;;
54005;SDS011;39919;38.160;-122.260;2023-06-04T13:38:26;35.80;;;6.90;;
54005;SDS011;39919;38.160;-122.260;2023-06-04T13:40:55;45.25;;;6.35;;
54005;SDS011;39919;38.160;-122.260;2023-06-04T13:43:24;40.00;;;6.15;;
54005;SDS011;39919;38.160;-122.260;2023-06-04T13:45:53;40.33;;;6.97;;
54005;SDS011;39919;38.160;-122.260;2023-06-04T13:48:22;38.05;;;6.40;;
54005;SDS011;39919;38.160;-122.260;2023-06-04T13:50:52;55.05;;;8.43;;
54005;SDS011;39919;38.160;-122.260;2023-06-04T13:53:23;38.80;;;7.15;;
54005;SDS011;39919;38.160;-122.260;2023-06-04T13:55:52;43.17;;;7.43;;
54005;SDS011;39919;38.160;-122.260;2023-06-04T13:58:24;43.58;;;8.60;;
54005;SDS011;39919;38.160;-122.260;2023-06-04T14:00:53;30.55;;;5.15;;
54005;SDS011;39919;38.160;-122.260;2023-06-04T14:03:22;35.30;;;5.63;;
54005;SDS011;39919;38.160;-122.260;2023-06-04T14:05:52;28.73;;;5.20;;
54005;SDS011;39919;38.160;-122.260;2023-06-04T14:08:21;42.72;;;6.38;;
54005;SDS011;39919;38.160;-122.260;2023-06-04T14:10:52;43.53;;;6.57;;
54005;SDS011;39919;38.160;-122.260;2023-06-04T14:13:22;45.03;;;6.80;;
54005;SDS011;39919;38.160;-122.260;2023-06-04T14:15:53;29.77;;;5.40;;
54005;SDS011;39919;38.160;-122.260;2023-06-04T14:18:22;43.15;;;7.80;;
54005;SDS011;39919;38.160;-122.260;2023-06-04T14:20:52;39.88;;;6.38;;
54005;SDS011;39919;38.160;-122.260;2023-06-04T14:23:28;27.88;;;4.35;;
54005;SDS011;39919;38.160;-122.260;2023-06-04T14:25:57;35.60;;;6.85;;
54005;SDS011;39919;38.160;-122.260;2023-06-04T14:28:27;39.20;;;7.43;;
54005;SDS011;39919;38.160;-122.260;2023-06-04T14:30:56;34.05;;;6.30;;
54005;SDS011;39919;38.160;-122.260;2023-06-04T14:33:26;37.80;;;5.55;;
54005;SDS011;39919;38.160;-122.260;2023-06-04T14:35:55;28.60;;;5.75;;